createdAt,value
2023-01-30T00:01:03.677Z,18.17
2023-01-30T00:03:30.247Z,18.33
2023-01-30T00:05:56.735Z,19.27
2023-01-30T00:08:23.216Z,18.20
2023-01-30T00:10:49.984Z,19.97
2023-01-30T00:13:16.997Z,18.90
2023-01-30T00:15:43.795Z,19.87
2023-01-30T00:18:10.357Z,20.50
2023-01-30T00:20:37.398Z,20.43
2023-01-30T00:23:04.449Z,19.80
2023-01-30T00:25:31.607Z,18.87
2023-01-30T00:28:01.741Z,19.73
2023-01-30T00:30:30.457Z,19.20
2023-01-30T00:32:58.330Z,19.50
2023-01-30T00:35:28.472Z,20.17
2023-01-30T00:37:59.378Z,19.87
2023-01-30T00:40:27.410Z,19.73
2023-01-30T00:43:13.651Z,19.10
2023-01-30T00:46:01.882Z,20.20
2023-01-30T00:48:28.823Z,20.27
2023-01-30T00:50:55.270Z,19.00
2023-01-30T00:53:21.800Z,19.07
2023-01-30T00:55:51.258Z,19.30
2023-01-30T00:58:17.733Z,19.10
2023-01-30T01:00:44.182Z,17.90
2023-01-30T01:03:10.819Z,18.60
2023-01-30T01:05:37.322Z,16.87
2023-01-30T01:08:04.318Z,19.40
2023-01-30T01:10:30.937Z,17.47
2023-01-30T01:12:58.015Z,16.63
2023-01-30T01:15:26.125Z,17.37
2023-01-30T01:17:53.621Z,16.93
2023-01-30T01:20:21.241Z,17.43
2023-01-30T01:22:52.383Z,16.20
2023-01-30T01:25:21.179Z,16.17
2023-01-30T01:27:48.319Z,17.07
2023-01-30T01:30:17.096Z,16.73
2023-01-30T01:32:44.177Z,17.07
2023-01-30T01:35:11.266Z,16.17
2023-01-30T01:37:38.047Z,16.90
2023-01-30T01:40:24.807Z,16.10
2023-01-30T01:42:51.611Z,16.40
2023-01-30T01:45:21.796Z,16.53
2023-01-30T01:48:09.384Z,17.90
2023-01-30T01:50:44.122Z,17.33
2023-01-30T01:53:13.892Z,18.20
2023-01-30T01:55:43.587Z,18.10
2023-01-30T01:58:17.948Z,18.87
2023-01-30T02:00:44.739Z,18.17
2023-01-30T02:03:17.386Z,18.53
2023-01-30T02:05:50.726Z,19.27
2023-01-30T02:08:22.328Z,18.27
2023-01-30T02:11:03.888Z,18.60
2023-01-30T02:13:31.441Z,19.07
2023-01-30T02:16:00.357Z,19.30
2023-01-30T02:18:29.047Z,19.70
2023-01-30T02:21:22.298Z,19.00
2023-01-30T02:24:34.923Z,18.60
2023-01-30T02:27:17.391Z,19.20
2023-01-30T02:30:18.075Z,19.83
2023-01-30T02:33:10.582Z,19.40
2023-01-30T02:35:54.417Z,19.57
2023-01-30T02:38:32.865Z,21.30
2023-01-30T02:41:25.556Z,20.87
2023-01-30T02:44:08.928Z,21.60
2023-01-30T02:46:56.705Z,21.83
2023-01-30T02:49:27.600Z,21.60
2023-01-30T02:51:56.545Z,21.07
2023-01-30T02:54:23.215Z,21.40
2023-01-30T02:56:54.752Z,21.60
2023-01-30T02:59:25.433Z,21.27
2023-01-30T03:02:00.911Z,20.80
2023-01-30T03:04:39.434Z,23.00
2023-01-30T03:07:22.415Z,22.40
2023-01-30T03:10:07.513Z,22.73
2023-01-30T03:12:57.053Z,23.40
2023-01-30T03:15:35.440Z,22.57
2023-01-30T03:18:03.327Z,21.83
2023-01-30T03:20:30.692Z,23.53
2023-01-30T03:22:57.160Z,24.40
2023-01-30T03:25:26.899Z,24.20
2023-01-30T03:27:55.404Z,24.67
2023-01-30T03:30:25.588Z,24.97
2023-01-30T03:32:58.194Z,23.67
2023-01-30T03:35:25.081Z,24.07
2023-01-30T03:37:51.926Z,24.83
2023-01-30T03:40:18.724Z,24.67
2023-01-30T03:42:46.061Z,25.83
2023-01-30T03:45:12.887Z,23.63
2023-01-30T03:47:39.412Z,24.80
2023-01-30T03:50:06.808Z,24.17
2023-01-30T03:52:37.374Z,23.23
2023-01-30T03:55:08.073Z,23.83
2023-01-30T03:57:35.782Z,23.20
2023-01-30T04:00:04.514Z,21.57
2023-01-30T04:02:42.712Z,23.20
2023-01-30T04:05:11.055Z,22.53
2023-01-30T04:07:40.900Z,22.87
2023-01-30T04:10:10.028Z,22.83
2023-01-30T04:12:36.466Z,22.73
2023-01-30T04:15:03.868Z,22.67
2023-01-30T04:17:47.828Z,21.70
2023-01-30T04:20:33.336Z,21.40
2023-01-30T04:23:00.275Z,21.37
2023-01-30T04:25:27.427Z,20.47
2023-01-30T04:27:54.291Z,20.03
2023-01-30T04:30:24.940Z,20.43
2023-01-30T04:32:56.824Z,20.47
2023-01-30T04:35:23.459Z,18.93
2023-01-30T04:37:50.077Z,20.07
2023-01-30T04:40:19.669Z,18.70
2023-01-30T04:42:46.251Z,18.73
2023-01-30T04:45:48.913Z,16.77
2023-01-30T04:48:16.879Z,18.00
2023-01-30T04:50:47.625Z,18.77
2023-01-30T04:53:14.821Z,18.70
2023-01-30T04:55:41.271Z,18.73
2023-01-30T04:58:07.885Z,17.33
2023-01-30T05:00:34.350Z,19.13
2023-01-30T05:03:01.093Z,18.03
2023-01-30T05:05:28.214Z,19.33
2023-01-30T05:07:54.973Z,18.20
2023-01-30T05:10:21.936Z,18.93
2023-01-30T05:12:48.530Z,19.33
2023-01-30T05:15:15.054Z,17.90
2023-01-30T05:17:44.391Z,18.33
2023-01-30T05:20:13.420Z,18.47
2023-01-30T05:22:39.923Z,18.30
2023-01-30T05:25:06.828Z,18.93
2023-01-30T05:27:33.254Z,18.67
2023-01-30T05:29:59.731Z,18.20
2023-01-30T05:32:27.251Z,17.03
2023-01-30T05:34:53.790Z,17.53
2023-01-30T05:37:20.225Z,16.53
2023-01-30T05:39:46.677Z,17.60
2023-01-30T05:42:14.083Z,16.93
2023-01-30T05:44:40.630Z,17.47
2023-01-30T05:47:07.114Z,17.23
2023-01-30T05:49:33.573Z,17.07
2023-01-30T05:52:00.001Z,17.13
2023-01-30T05:54:26.494Z,16.17
2023-01-30T05:56:52.956Z,17.63
2023-01-30T05:59:19.561Z,16.77
2023-01-30T06:01:46.313Z,16.83
2023-01-30T06:04:12.786Z,17.43
2023-01-30T06:06:39.298Z,17.23
2023-01-30T06:09:05.764Z,17.00
2023-01-30T06:11:32.323Z,16.93
2023-01-30T06:13:58.759Z,17.83
2023-01-30T06:16:25.297Z,17.37
2023-01-30T06:18:52.037Z,17.40
2023-01-30T06:21:18.783Z,18.23
2023-01-30T06:23:46.308Z,17.00
2023-01-30T06:26:12.895Z,18.97
2023-01-30T06:28:39.527Z,18.90
2023-01-30T06:31:07.453Z,18.47
2023-01-30T06:33:34.013Z,17.50
2023-01-30T06:36:00.528Z,17.53
2023-01-30T06:38:26.974Z,18.07
2023-01-30T06:40:53.507Z,17.00
2023-01-30T06:43:19.977Z,16.43
2023-01-30T06:45:46.531Z,16.17
2023-01-30T06:48:12.992Z,17.10
2023-01-30T06:50:39.469Z,17.47
2023-01-30T06:53:08.362Z,16.37
2023-01-30T06:55:36.001Z,17.43
2023-01-30T06:58:07.860Z,16.80
2023-01-30T07:00:34.913Z,16.20
2023-01-30T07:03:01.495Z,16.10
2023-01-30T07:05:31.826Z,16.63
2023-01-30T07:07:58.338Z,16.63
2023-01-30T07:10:26.213Z,17.20
2023-01-30T07:12:53.460Z,17.43
2023-01-30T07:15:20.146Z,17.43
2023-01-30T07:17:46.836Z,18.47
2023-01-30T07:20:13.532Z,17.57
2023-01-30T07:22:40.030Z,16.90
2023-01-30T07:25:06.917Z,17.47
2023-01-30T07:27:33.676Z,15.80
2023-01-30T07:30:00.267Z,18.13
2023-01-30T07:32:26.825Z,19.47
2023-01-30T07:34:53.352Z,17.80
2023-01-30T07:37:19.795Z,16.83
2023-01-30T07:39:46.225Z,17.87
2023-01-30T07:42:12.695Z,17.50
2023-01-30T07:44:40.151Z,17.03
2023-01-30T07:47:06.615Z,15.97
2023-01-30T07:49:33.099Z,16.07
2023-01-30T07:51:59.525Z,16.50
2023-01-30T07:54:26.733Z,16.20
2023-01-30T07:56:53.175Z,17.27
2023-01-30T07:59:19.917Z,16.30
2023-01-30T08:01:46.525Z,18.80
2023-01-30T08:04:13.045Z,15.83
2023-01-30T08:06:39.732Z,16.23
2023-01-30T08:09:07.283Z,14.70
2023-01-30T08:11:34.442Z,15.67
2023-01-30T08:14:00.975Z,16.20
2023-01-30T08:16:27.536Z,15.47
2023-01-30T08:18:54.153Z,14.70
2023-01-30T08:21:20.718Z,14.43
2023-01-30T08:23:47.199Z,15.13
2023-01-30T08:26:13.776Z,14.90
2023-01-30T08:28:40.860Z,14.67
2023-01-30T08:31:11.988Z,15.20
2023-01-30T08:33:38.569Z,14.30
2023-01-30T08:36:05.768Z,13.93
2023-01-30T08:38:32.253Z,14.67
2023-01-30T08:41:00.867Z,13.63
2023-01-30T08:43:27.804Z,12.53
2023-01-30T08:45:55.010Z,12.30
2023-01-30T08:48:22.025Z,12.80
2023-01-30T08:50:51.983Z,11.47
2023-01-30T08:53:18.469Z,12.10
2023-01-30T08:55:45.619Z,11.33
2023-01-30T08:58:12.142Z,11.50
2023-01-30T09:00:39.772Z,11.70
2023-01-30T09:03:06.485Z,11.50
2023-01-30T09:05:32.984Z,10.20
2023-01-30T09:07:59.531Z,10.13
2023-01-30T09:10:25.988Z,10.43
2023-01-30T09:12:52.544Z,10.50
2023-01-30T09:15:18.966Z,9.43
2023-01-30T09:17:45.451Z,9.53
2023-01-30T09:20:12.750Z,9.30
2023-01-30T09:22:39.630Z,8.20
2023-01-30T09:25:06.790Z,8.33
2023-01-30T09:27:33.391Z,9.10
2023-01-30T09:29:59.835Z,8.47
2023-01-30T09:32:26.346Z,8.30
2023-01-30T09:34:52.865Z,7.73
2023-01-30T09:37:19.323Z,7.57
2023-01-30T09:39:45.775Z,8.03
2023-01-30T09:42:35.534Z,7.30
2023-01-30T09:45:36.687Z,8.10
2023-01-30T09:48:18.247Z,6.93
2023-01-30T09:50:52.524Z,7.17
2023-01-30T09:53:30.984Z,6.87
2023-01-30T09:56:01.628Z,7.03
2023-01-30T09:58:53.892Z,7.53
2023-01-30T10:01:29.449Z,6.50
2023-01-30T10:04:06.552Z,7.33
2023-01-30T10:06:41.786Z,7.53
2023-01-30T10:09:31.069Z,9.53
2023-01-30T10:12:27.331Z,7.90
2023-01-30T10:15:10.205Z,8.10
2023-01-30T10:17:49.110Z,6.63
2023-01-30T10:20:39.089Z,12.40
2023-01-30T10:23:44.592Z,6.73
2023-01-30T10:26:16.085Z,8.67
2023-01-30T10:28:52.440Z,9.80
2023-01-30T10:31:31.968Z,7.97
2023-01-30T10:34:06.336Z,8.13
2023-01-30T10:36:43.056Z,9.37
2023-01-30T10:39:28.404Z,7.97
2023-01-30T10:42:06.825Z,11.00
2023-01-30T10:44:34.364Z,7.83
2023-01-30T10:47:19.357Z,7.67
2023-01-30T10:49:58.673Z,7.90
2023-01-30T10:52:34.168Z,7.67
2023-01-30T10:55:36.696Z,13.10
2023-01-30T10:58:31.921Z,8.13
2023-01-30T11:01:16.421Z,7.63
2023-01-30T11:03:50.292Z,7.90
2023-01-30T11:06:26.313Z,6.50
2023-01-30T11:08:56.076Z,7.10
2023-01-30T11:11:28.067Z,8.90
2023-01-30T11:14:08.082Z,6.37
2023-01-30T11:16:51.994Z,6.57
2023-01-30T11:19:22.818Z,6.93
2023-01-30T11:21:55.102Z,10.70
2023-01-30T11:24:28.828Z,8.33
2023-01-30T11:26:56.546Z,5.87
2023-01-30T11:29:31.706Z,7.77
2023-01-30T11:32:04.359Z,7.87
2023-01-30T11:34:30.955Z,11.63
2023-01-30T11:37:15.569Z,6.60
2023-01-30T11:39:52.072Z,6.73
2023-01-30T11:42:23.315Z,5.83
2023-01-30T11:45:10.881Z,7.90
2023-01-30T11:47:57.960Z,6.90
2023-01-30T11:50:36.984Z,7.77
2023-01-30T11:53:16.617Z,6.67
2023-01-30T11:55:56.360Z,8.77
2023-01-30T11:58:31.814Z,8.00
2023-01-30T12:00:59.426Z,6.67
2023-01-30T12:03:29.386Z,6.53
2023-01-30T12:05:57.986Z,6.87
2023-01-30T12:08:41.793Z,7.57
2023-01-30T12:11:26.478Z,7.17
2023-01-30T12:13:57.262Z,7.23
2023-01-30T12:16:50.427Z,7.27
2023-01-30T12:19:50.507Z,7.73
2023-01-30T12:22:33.581Z,8.37
2023-01-30T12:25:23.110Z,8.30
2023-01-30T12:28:03.170Z,8.17
2023-01-30T12:33:10.593Z,8.60
2023-01-30T12:36:00.942Z,8.77
2023-01-30T12:38:34.743Z,8.20
2023-01-30T12:41:21.727Z,9.13
2023-01-30T12:44:18.599Z,9.07
2023-01-30T12:47:13.076Z,9.00
2023-01-30T12:50:06.347Z,9.00
2023-01-30T12:52:56.205Z,9.97
2023-01-30T12:55:33.510Z,8.87
2023-01-30T12:58:21.612Z,9.33
2023-01-30T13:00:55.095Z,10.07
2023-01-30T13:03:49.436Z,10.47
2023-01-30T13:06:36.540Z,9.70
2023-01-30T13:09:19.029Z,10.27
2023-01-30T13:11:59.146Z,9.30
2023-01-30T13:14:54.958Z,9.87
2023-01-30T13:17:39.610Z,10.50
2023-01-30T13:20:06.276Z,10.20
2023-01-30T13:22:45.965Z,10.17
2023-01-30T13:25:18.498Z,11.13
2023-01-30T13:27:54.269Z,10.27
2023-01-30T13:30:21.312Z,10.23
2023-01-30T13:32:51.746Z,10.47
2023-01-30T13:35:25.957Z,12.00
2023-01-30T13:37:54.424Z,11.47
2023-01-30T13:40:39.883Z,10.87
2023-01-30T13:43:16.137Z,12.67
2023-01-30T13:45:46.165Z,11.17
2023-01-30T13:48:27.443Z,10.13
2023-01-30T13:51:12.600Z,9.23
2023-01-30T13:53:48.579Z,10.13
2023-01-30T13:56:40.776Z,8.27
2023-01-30T13:59:32.672Z,8.87
2023-01-30T14:01:59.137Z,8.47
2023-01-30T14:04:40.694Z,7.83
2023-01-30T14:07:30.815Z,8.80
2023-01-30T14:10:20.600Z,8.00
2023-01-30T14:12:51.039Z,8.73
2023-01-30T14:15:20.709Z,8.27
2023-01-30T14:18:07.202Z,8.03
2023-01-30T14:20:41.215Z,8.67
2023-01-30T14:23:24.442Z,10.47
2023-01-30T14:25:53.997Z,9.40
2023-01-30T14:28:20.365Z,8.43
2023-01-30T14:30:54.092Z,9.63
2023-01-30T14:33:20.457Z,9.83
2023-01-30T14:35:58.980Z,10.00
2023-01-30T14:38:27.426Z,9.33
2023-01-30T14:40:59.961Z,9.83
2023-01-30T14:43:38.457Z,9.67
2023-01-30T14:46:27.905Z,9.57
2023-01-30T14:49:04.368Z,8.83
2023-01-30T14:51:44.306Z,8.63
2023-01-30T14:54:16.790Z,8.70
2023-01-30T14:57:05.900Z,8.93
2023-01-30T14:59:54.080Z,9.73
2023-01-30T15:02:34.462Z,9.87
2023-01-30T15:05:13.923Z,9.67
2023-01-30T15:07:45.575Z,9.57
2023-01-30T15:10:44.138Z,9.07
2023-01-30T15:13:22.801Z,9.23
2023-01-30T15:16:23.485Z,8.97
2023-01-30T15:19:05.104Z,10.93
2023-01-30T15:21:50.364Z,10.27
2023-01-30T15:24:48.004Z,9.50
2023-01-30T15:27:31.584Z,9.93
2023-01-30T15:30:17.220Z,9.87
2023-01-30T15:32:44.737Z,10.00
2023-01-30T15:35:11.102Z,10.23
2023-01-30T15:37:48.791Z,9.37
2023-01-30T15:40:15.196Z,8.20
2023-01-30T15:43:00.558Z,8.63
2023-01-30T15:45:48.179Z,8.20
2023-01-30T15:48:36.069Z,8.17
2023-01-30T15:51:03.278Z,8.10
2023-01-30T15:53:34.720Z,8.50
2023-01-30T15:56:03.360Z,7.97
2023-01-30T15:58:31.516Z,8.23
2023-01-30T16:01:00.744Z,8.10
2023-01-30T16:03:31.513Z,9.00
2023-01-30T16:05:58.525Z,8.90
2023-01-30T16:08:30.204Z,10.37
2023-01-30T16:10:56.928Z,8.77
2023-01-30T16:13:24.438Z,9.90
2023-01-30T16:16:16.877Z,9.00
2023-01-30T16:18:48.179Z,8.80
2023-01-30T16:21:21.555Z,9.27
2023-01-30T16:23:59.915Z,10.40
2023-01-30T16:26:27.015Z,10.47
2023-01-30T16:29:01.264Z,10.97
2023-01-30T16:31:33.350Z,9.60
2023-01-30T16:34:00.281Z,9.60
2023-01-30T16:36:26.851Z,10.60
2023-01-30T16:38:54.723Z,10.17
2023-01-30T16:41:31.746Z,10.90
2023-01-30T16:44:17.194Z,10.20
2023-01-30T16:47:00.471Z,10.50
2023-01-30T16:49:36.104Z,10.47
2023-01-30T16:52:15.217Z,11.20
2023-01-30T16:54:47.780Z,10.87
2023-01-30T16:57:25.800Z,10.67
2023-01-30T16:59:52.297Z,10.63
2023-01-30T17:02:49.860Z,11.43
2023-01-30T17:05:20.706Z,11.80
2023-01-30T17:07:48.614Z,11.37
2023-01-30T17:10:36.793Z,12.93
2023-01-30T17:13:03.846Z,11.83
2023-01-30T17:15:37.167Z,13.23
2023-01-30T17:18:03.804Z,12.87
2023-01-30T17:20:38.485Z,17.93
2023-01-30T17:23:08.753Z,15.20
2023-01-30T17:25:41.752Z,22.87
2023-01-30T17:28:08.692Z,15.07
2023-01-30T17:30:35.428Z,14.33
2023-01-30T17:33:01.951Z,14.67
2023-01-30T17:35:28.489Z,16.50
2023-01-30T17:38:04.605Z,16.33
2023-01-30T17:40:35.537Z,14.53
2023-01-30T17:43:02.292Z,14.20
2023-01-30T17:45:28.904Z,13.30
2023-01-30T17:47:55.506Z,13.67
2023-01-30T17:50:22.279Z,14.37
2023-01-30T17:52:48.812Z,16.73
2023-01-30T17:55:15.446Z,13.80
2023-01-30T17:57:44.296Z,14.03
2023-01-30T18:00:19.300Z,14.50
2023-01-30T18:02:46.138Z,15.70
2023-01-30T18:05:13.394Z,15.80
2023-01-30T18:07:40.913Z,14.57
2023-01-30T18:10:11.898Z,17.40
2023-01-30T18:12:38.379Z,16.87
2023-01-30T18:15:05.233Z,17.07
2023-01-30T18:17:32.437Z,22.83
2023-01-30T18:20:01.016Z,17.10
2023-01-30T18:22:27.488Z,16.73
2023-01-30T18:24:53.959Z,19.70
2023-01-30T18:27:20.453Z,23.27
2023-01-30T18:29:46.927Z,18.30
2023-01-30T18:32:13.359Z,17.50
2023-01-30T18:34:39.808Z,16.23
2023-01-30T18:37:06.263Z,15.70
2023-01-30T18:39:32.706Z,14.60
2023-01-30T18:41:59.138Z,15.57
2023-01-30T18:44:25.593Z,17.13
2023-01-30T18:46:52.023Z,16.60
2023-01-30T18:49:18.507Z,16.40
2023-01-30T18:51:44.946Z,16.13
2023-01-30T18:54:11.527Z,15.53
2023-01-30T18:56:38.656Z,15.77
2023-01-30T18:59:06.110Z,16.20
2023-01-30T19:01:42.488Z,16.47
2023-01-30T19:04:11.075Z,16.27
2023-01-30T19:06:40.721Z,17.07
2023-01-30T19:09:08.666Z,17.43
2023-01-30T19:11:53.795Z,18.50
2023-01-30T19:14:20.247Z,17.87
2023-01-30T19:16:46.834Z,18.70
2023-01-30T19:19:13.403Z,21.07
2023-01-30T19:21:39.940Z,21.40
2023-01-30T19:24:11.275Z,20.50
2023-01-30T19:26:37.856Z,23.63
2023-01-30T19:29:04.417Z,22.20
2023-01-30T19:31:31.018Z,22.00
2023-01-30T19:34:00.643Z,21.03
2023-01-30T19:36:29.401Z,19.83
2023-01-30T19:38:58.181Z,20.43
2023-01-30T19:41:28.735Z,20.00
2023-01-30T19:43:56.759Z,18.80
2023-01-30T19:46:23.836Z,18.20
2023-01-30T19:48:50.911Z,19.53
2023-01-30T19:51:29.391Z,34.37
2023-01-30T19:54:01.270Z,22.93
2023-01-30T19:56:28.857Z,22.47
2023-01-30T19:58:57.306Z,19.93
2023-01-30T20:01:27.531Z,20.00
2023-01-30T20:03:54.394Z,19.33
2023-01-30T20:06:30.772Z,18.37
2023-01-30T20:09:02.856Z,19.13
2023-01-30T20:11:30.365Z,18.50
2023-01-30T20:13:58.342Z,17.93
2023-01-30T20:16:27.427Z,17.40
2023-01-30T20:18:57.044Z,17.03
2023-01-30T20:21:24.375Z,17.37
2023-01-30T20:23:51.423Z,18.23
2023-01-30T20:26:26.968Z,16.80
2023-01-30T20:28:57.253Z,16.10
2023-01-30T20:31:26.369Z,17.07
2023-01-30T20:33:55.642Z,18.03
2023-01-30T20:36:22.156Z,21.20
2023-01-30T20:38:49.989Z,18.87
2023-01-30T20:41:22.388Z,18.47
2023-01-30T20:43:51.097Z,18.10
2023-01-30T20:46:20.138Z,35.93
2023-01-30T20:48:47.332Z,27.93
2023-01-30T20:51:17.142Z,49.23
2023-01-30T20:53:52.722Z,26.13
2023-01-30T20:56:21.059Z,17.87
2023-01-30T20:58:48.139Z,18.43
2023-01-30T21:01:20.312Z,18.60
2023-01-30T21:03:50.313Z,18.77
2023-01-30T21:06:43.007Z,18.10
2023-01-30T21:09:08.880Z,18.33
2023-01-30T21:11:35.534Z,18.47
2023-01-30T21:14:02.181Z,17.97
2023-01-30T21:16:30.798Z,18.70
2023-01-30T21:19:04.090Z,18.03
2023-01-30T21:21:33.943Z,17.60
2023-01-30T21:24:04.461Z,17.77
2023-01-30T21:26:32.854Z,17.30
2023-01-30T21:29:03.277Z,18.67
2023-01-30T21:31:31.291Z,18.97
2023-01-30T21:33:58.946Z,18.90
2023-01-30T21:36:26.626Z,19.37
2023-01-30T21:39:12.243Z,17.73
2023-01-30T21:42:00.125Z,18.70
2023-01-30T21:44:29.130Z,18.13
2023-01-30T21:46:56.029Z,18.37
2023-01-30T21:49:25.190Z,18.80
2023-01-30T21:51:52.480Z,18.80
2023-01-30T21:54:19.508Z,18.27
2023-01-30T21:56:46.003Z,18.37
2023-01-30T21:59:13.279Z,19.10
2023-01-30T22:01:40.883Z,18.30
2023-01-30T22:04:10.110Z,17.93
2023-01-30T22:06:37.839Z,19.27
2023-01-30T22:09:05.388Z,18.00
2023-01-30T22:11:34.307Z,18.33
2023-01-30T22:14:00.755Z,18.10
2023-01-30T22:16:29.140Z,17.73
2023-01-30T22:18:56.943Z,16.67
2023-01-30T22:21:25.736Z,17.77
2023-01-30T22:23:54.019Z,18.37
2023-01-30T22:26:23.455Z,18.70
2023-01-30T22:28:57.430Z,19.07
2023-01-30T22:31:25.498Z,17.90
2023-01-30T22:33:55.005Z,18.30
2023-01-30T22:36:30.004Z,17.37
2023-01-30T22:38:56.691Z,17.63
2023-01-30T22:41:25.661Z,16.93
2023-01-30T22:43:55.380Z,16.03
2023-01-30T22:46:31.531Z,16.83
2023-01-30T22:48:59.983Z,16.07
2023-01-30T22:51:31.638Z,16.93
2023-01-30T22:54:00.533Z,16.63
2023-01-30T22:56:29.928Z,16.07
2023-01-30T22:58:57.007Z,16.80
2023-01-30T23:01:26.675Z,16.43
2023-01-30T23:03:55.249Z,16.57
2023-01-30T23:06:21.890Z,16.63
2023-01-30T23:08:49.443Z,16.17
2023-01-30T23:11:15.834Z,16.57
2023-01-30T23:13:47.683Z,17.90
2023-01-30T23:16:16.690Z,17.00
2023-01-30T23:18:55.243Z,17.07
2023-01-30T23:21:50.737Z,17.50
2023-01-30T23:24:19.466Z,17.97
2023-01-30T23:26:48.861Z,17.27
2023-01-30T23:29:17.711Z,17.10
2023-01-30T23:31:45.749Z,17.63
2023-01-30T23:34:15.399Z,18.63
2023-01-30T23:36:42.707Z,18.20
2023-01-30T23:39:12.032Z,18.77
2023-01-30T23:41:38.947Z,20.43
2023-01-30T23:44:06.034Z,18.93
2023-01-30T23:46:35.277Z,18.60
2023-01-30T23:49:05.040Z,18.53
2023-01-30T23:51:33.960Z,17.93
2023-01-30T23:54:01.369Z,18.13
2023-01-30T23:56:30.100Z,16.13
2023-01-30T23:58:57.169Z,15.83
